X  Fechar Metar - Info de Aeroporto        LELL Aeropuerto de Barcelona Josep Tarradellas
Temperatura
22°C Temperatura
17°C Ptº Orvalho
73% Humidade



Vento
6 KM/H
3 MPH
1 M/S
3 NÓS



110°
LSL
Condições Atuais

Mostly Sunny Principalmente ensolarado
Pressão 1010 (hPa) - 29.82 (inHg)
Visibilidade 6 (milha) - 10 (km)
Aeroporto
Código-Aeropoto LELL

Localização: Aeropuerto de Barcelona Josep Tarradellas
Distância: 20 (km)

Metar:
METAR LELL 190700Z 11003KT 050V160 CAVOK 22/17 Q1011

Hora: 19-06-2024 09:00 CEST